Time;durP1;ratioP1;P1;durP2;ratioP2;P2;SDS_P1;SDS_P2;PMS_P1;PMS_P2;Temp;Humidity;BMP_temperature;BMP_pressure;BME280_temperature;BME280_humidity;BME280_pressure;Samples;Min_cycle;Max_cycle;Signal;HPM_P1;HPM_P2
2023/02/17 00:01:00;;;;;;;33.2;17.5;;;;;;;5.69;65.17578;946.6214;;;;
2023/02/17 00:03:25;;;;;;;20.7;11.9;;;;;;;5.61;65.37793;946.6797;;;;
2023/02/17 00:05:57;;;;;;;12.2;7.1;;;;;;;5.49;65.5625;946.6817;;;;
2023/02/17 00:08:23;;;;;;;10.8;6.4;;;;;;;5.38;65.85059;946.5731;;;;
2023/02/17 00:10:48;;;;;;;11.8;6.3;;;;;;;5.3;66.0752;946.6054;;;;
2023/02/17 00:13:17;;;;;;;8.8;5.8;;;;;;;5.26;66.32813;946.6113;;;;
2023/02/17 00:15:46;;;;;;;12.5;6.3;;;;;;;5.23;66.71777;946.5133;;;;
2023/02/17 00:18:14;;;;;;;6.5;4.5;;;;;;;5.18;66.06836;946.5455;;;;
2023/02/17 00:20:56;;;;;;;10.2;4.9;;;;;;;5.21;66.12793;946.5447;;;;
2023/02/17 00:23:28;;;;;;;227.3;105.5;;;;;;;5.13;66.54492;946.5;;;;
2023/02/17 00:25:54;;;;;;;13.9;7.8;;;;;;;5.09;66.60547;946.5914;;;;
2023/02/17 00:28:23;;;;;;;60.4;27.9;;;;;;;4.96;66.56152;946.5435;;;;
2023/02/17 00:30:48;;;;;;;8;3.9;;;;;;;4.91;66.65625;946.6021;;;;
2023/02/17 00:33:13;;;;;;;62.8;28.9;;;;;;;4.88;66.24609;946.5912;;;;
2023/02/17 00:35:39;;;;;;;163.5;75.7;;;;;;;4.95;66.14453;946.6591;;;;
2023/02/17 00:38:04;;;;;;;6.1;3.9;;;;;;;5.05;65.47266;946.6583;;;;
2023/02/17 00:40:37;;;;;;;4.3;3.1;;;;;;;5.14;65.39453;946.6509;;;;
2023/02/17 00:43:06;;;;;;;5.5;3.5;;;;;;;5.11;65.51465;946.6337;;;;
2023/02/17 00:46:04;;;;;;;6.9;4;;;;;;;5.06;65.85742;946.5585;;;;
2023/02/17 00:48:24;;;;;;;124.3;61.2;;;;;;;5.1;65.6377;946.6301;;;;
2023/02/17 00:51:00;;;;;;;6.4;3.3;;;;;;;5.16;65.35352;946.5698;;;;
2023/02/17 00:53:26;;;;;;;6.8;3.7;;;;;;;5.16;65.13965;946.5618;;;;
2023/02/17 00:55:55;;;;;;;5.8;4;;;;;;;5.16;65.13965;946.6186;;;;
2023/02/17 00:58:27;;;;;;;4.7;3.6;;;;;;;5.09;65.61328;946.6275;;;;
2023/02/17 01:01:02;;;;;;;6.7;3.7;;;;;;;5.03;65.93164;946.6141;;;;
2023/02/17 01:03:31;;;;;;;53.5;35.2;;;;;;;4.93;66.5127;946.5531;;;;
2023/02/17 01:05:58;;;;;;;5.3;3.3;;;;;;;4.91;66.79102;946.6539;;;;
2023/02/17 01:08:26;;;;;;;116.8;65.2;;;;;;;4.79;67.11133;946.5856;;;;
2023/02/17 01:10:52;;;;;;;4.9;3.3;;;;;;;4.82;67.3291;946.6281;;;;
2023/02/17 01:13:18;;;;;;;38.7;22.7;;;;;;;4.76;67.59082;946.5928;;;;
2023/02/17 01:15:57;;;;;;;4.2;3.4;;;;;;;4.75;67.5332;946.5709;;;;
2023/02/17 01:19:04;;;;;;;4.7;3.1;;;;;;;4.91;66.97168;946.5372;;;;
2023/02/17 01:21:41;;;;;;;74.5;57.6;;;;;;;4.93;67.07617;946.539;;;;
2023/02/17 01:24:12;;;;;;;4.8;3.9;;;;;;;4.96;66.80957;946.5119;;;;
2023/02/17 01:26:38;;;;;;;5.4;3.2;;;;;;;5.03;66.70996;946.5469;;;;
2023/02/17 01:29:12;;;;;;;4.9;2.9;;;;;;;5;66.78418;946.4277;;;;
2023/02/17 01:31:42;;;;;;;5.1;3.3;;;;;;;4.94;67.16797;946.4217;;;;
2023/02/17 01:34:17;;;;;;;4.4;3.3;;;;;;;4.94;67.28125;946.3629;;;;
2023/02/17 01:36:51;;;;;;;5.1;3.4;;;;;;;4.86;67.44922;946.346;;;;
2023/02/17 01:39:18;;;;;;;3.9;3;;;;;;;4.81;67.8252;946.2633;;;;
2023/02/17 01:41:54;;;;;;;3.9;3.1;;;;;;;4.78;68.0332;946.2286;;;;
2023/02/17 01:44:26;;;;;;;5.3;3.3;;;;;;;4.83;67.98438;946.2775;;;;
2023/02/17 01:46:54;;;;;;;4.6;3.1;;;;;;;4.86;67.83105;946.2029;;;;
2023/02/17 01:49:21;;;;;;;5;3;;;;;;;4.9;67.4209;946.2031;;;;
2023/02/17 01:51:46;;;;;;;5.3;3;;;;;;;4.98;67.02832;946.1396;;;;
2023/02/17 01:54:11;;;;;;;4.5;2.8;;;;;;;5.09;66.49121;946.1609;;;;
2023/02/17 01:56:37;;;;;;;4;2.9;;;;;;;5.08;66.45703;946.0148;;;;
2023/02/17 01:59:06;;;;;;;7;3.5;;;;;;;5.1;66.44922;946.0422;;;;
2023/02/17 02:01:31;;;;;;;4.8;3.2;;;;;;;5.09;66.59277;946.0094;;;;
2023/02/17 02:04:01;;;;;;;3.9;2.3;;;;;;;5.16;65.5;945.9217;;;;
2023/02/17 02:06:26;;;;;;;3.4;2.7;;;;;;;5.15;66.40137;945.9742;;;;
2023/02/17 02:08:55;;;;;;;6.1;3.2;;;;;;;5.11;66.20215;945.9306;;;;
2023/02/17 02:11:21;;;;;;;4.3;3;;;;;;;5.04;66.46191;945.8906;;;;
2023/02/17 02:13:50;;;;;;;5.3;4;;;;;;;5.02;66.53906;945.9278;;;;
2023/02/17 02:16:16;;;;;;;4.2;3;;;;;;;5.09;66.32324;945.7838;;;;
2023/02/17 02:18:41;;;;;;;5.9;2.9;;;;;;;5.03;66.77734;945.8438;;;;
2023/02/17 02:21:06;;;;;;;6.7;2.9;;;;;;;4.99;66.83789;945.8054;;;;
2023/02/17 02:23:31;;;;;;;3.2;2.5;;;;;;;5;66.45801;945.7957;;;;
2023/02/17 02:25:58;;;;;;;3.2;2.3;;;;;;;4.89;67.04883;945.6561;;;;
2023/02/17 02:28:24;;;;;;;3.3;2.4;;;;;;;4.89;67.12793;945.6987;;;;
2023/02/17 02:30:51;;;;;;;5;2.8;;;;;;;4.99;67.07617;945.7227;;;;
2023/02/17 02:33:16;;;;;;;3.4;2.3;;;;;;;4.99;66.92773;945.7114;;;;
2023/02/17 02:35:44;;;;;;;5.2;2.3;;;;;;;4.94;67.28125;945.6548;;;;
2023/02/17 02:39:06;;;;;;;3.4;2.1;;;;;;;4.95;67.42969;945.6973;;;;
2023/02/17 02:41:31;;;;;;;4.2;3;;;;;;;4.92;67.69629;945.7029;;;;
2023/02/17 02:43:56;;;;;;;3.9;2.6;;;;;;;4.98;67.25391;945.7551;;;;
2023/02/17 02:46:25;;;;;;;3.1;2;;;;;;;5.08;66.54785;945.6927;;;;
2023/02/17 02:48:50;;;;;;;3.8;2.6;;;;;;;5.11;66.55176;945.7095;;;;
2023/02/17 02:51:15;;;;;;;3.6;2.2;;;;;;;5.11;66.37109;945.685;;;;
2023/02/17 02:53:42;;;;;;;3.2;2.5;;;;;;;5.11;66.25977;945.6877;;;;
2023/02/17 02:56:07;;;;;;;3.9;2.4;;;;;;;5.06;65.92383;945.7043;;;;
2023/02/17 02:58:32;;;;;;;4.8;2.6;;;;;;;5.14;66.07129;945.6342;;;;
2023/02/17 03:00:57;;;;;;;11.1;3.4;;;;;;;5.09;66.53809;945.757;;;;
2023/02/17 03:03:25;;;;;;;2.7;2.3;;;;;;;5.13;66.05957;945.698;;;;
2023/02/17 03:05:48;;;;;;;4.9;2.6;;;;;;;5.16;66.21094;945.6573;;;;
2023/02/17 03:08:13;;;;;;;3.8;2.4;;;;;;;5.28;65.98242;945.7163;;;;
2023/02/17 03:10:41;;;;;;;6.9;2.8;;;;;;;5.36;65.76758;945.6428;;;;
2023/02/17 03:13:03;;;;;;;3.7;2.3;;;;;;;5.26;65.34668;945.788;;;;
2023/02/17 03:15:36;;;;;;;3.2;2.1;;;;;;;5.27;62.76465;945.7388;;;;
2023/02/17 03:21:29;;;;;;;4.6;2.3;;;;;;;5.49;63.2832;945.8256;;;;
2023/02/17 03:23:54;;;;;;;3.2;2.4;;;;;;;5.59;63.34375;945.7781;;;;
2023/02/17 03:26:20;;;;;;;7.5;2.4;;;;;;;5.6;63.75098;945.8061;;;;
2023/02/17 03:28:45;;;;;;;4.8;2.4;;;;;;;5.51;64.22266;945.8997;;;;
2023/02/17 03:31:14;;;;;;;5.2;3.1;;;;;;;5.6;63.7959;945.8148;;;;
2023/02/17 03:33:39;;;;;;;5.7;3.3;;;;;;;5.71;63.70898;945.6912;;;;
2023/02/17 03:36:07;;;;;;;4.3;2.9;;;;;;;5.77;63.57227;945.8233;;;;
2023/02/17 03:38:32;;;;;;;4;2.5;;;;;;;5.69;64.43066;945.7024;;;;
2023/02/17 03:41:00;;;;;;;3.7;2.4;;;;;;;5.69;63.96777;945.7166;;;;
2023/02/17 03:43:25;;;;;;;3.5;2.4;;;;;;;5.78;63.83398;945.733;;;;
2023/02/17 03:45:53;;;;;;;4.6;2.6;;;;;;;5.84;63.66309;945.6685;;;;
2023/02/17 03:48:18;;;;;;;4.6;2.8;;;;;;;5.86;64.6582;945.7117;;;;
2023/02/17 03:50:47;;;;;;;3.3;2.5;;;;;;;5.66;66.0166;945.6711;;;;
2023/02/17 03:53:12;;;;;;;5.2;2.5;;;;;;;5.55;65.11816;945.7296;;;;
2023/02/17 03:58:57;;;;;;;7.8;2.7;;;;;;;5.58;64.88672;945.6945;;;;
2023/02/17 04:02:35;;;;;;;3.3;1.9;;;;;;;5.56;65.14355;945.6621;;;;
2023/02/17 04:05:06;;;;;;;8.3;7.6;;;;;;;5.47;65.01758;945.653;;;;
2023/02/17 04:07:36;;;;;;;3.1;2.1;;;;;;;5.35;65.59766;945.5959;;;;
2023/02/17 04:10:06;;;;;;;4.4;1.9;;;;;;;5.41;65.54883;945.6142;;;;
2023/02/17 04:12:31;;;;;;;4.5;2;;;;;;;5.42;65.49512;945.6116;;;;
2023/02/17 04:14:59;;;;;;;3.9;1.9;;;;;;;5.37;65.83691;945.5287;;;;
2023/02/17 04:21:03;;;;;;;5.2;2.7;;;;;;;5.28;66.22949;945.5542;;;;
2023/02/17 04:23:28;;;;;;;3.7;2.6;;;;;;;5.42;65.96777;945.5586;;;;
2023/02/17 04:25:54;;;;;;;3.9;2.2;;;;;;;5.45;65.61426;945.4906;;;;
2023/02/17 04:28:22;;;;;;;7;3.1;;;;;;;5.44;65.71289;945.5206;;;;
2023/02/17 04:30:49;;;;;;;4.3;2.5;;;;;;;5.49;65.74219;945.5678;;;;
2023/02/17 04:33:53;;;;;;;4.3;2.7;;;;;;;5.51;65.70117;945.4777;;;;
2023/02/17 04:39:35;;;;;;;8.1;6.2;;;;;;;5.31;66.33594;945.4094;;;;
2023/02/17 04:42:04;;;;;;;30.6;21.3;;;;;;;5.35;65.75684;945.5045;;;;
2023/02/17 04:44:29;;;;;;;30.2;18.2;;;;;;;5.44;65.3291;945.4608;;;;
2023/02/17 04:46:58;;;;;;;4.1;2.9;;;;;;;5.56;64.70508;945.4885;;;;
2023/02/17 04:51:01;;;;;;;7.1;3;;;;;;;5.59;64.51758;945.5301;;;;
2023/02/17 04:53:21;;;;;;;28.6;16.4;;;;;;;5.54;65.0166;945.4995;;;;
2023/02/17 04:55:49;;;;;;;10.7;4.5;;;;;;;5.49;65.22266;945.3963;;;;
2023/02/17 04:58:14;;;;;;;7.6;4.6;;;;;;;5.52;65.02441;945.4592;;;;
2023/02/17 05:01:06;;;;;;;5;3.5;;;;;;;5.54;64.72363;945.4877;;;;
2023/02/17 05:03:37;;;;;;;7.3;5;;;;;;;5.58;64.53711;945.4205;;;;
2023/02/17 05:06:07;;;;;;;11.4;9.2;;;;;;;5.66;64.72949;945.4935;;;;
2023/02/17 05:08:32;;;;;;;15.4;6.5;;;;;;;5.74;65.45508;945.4707;;;;
2023/02/17 05:11:02;;;;;;;13.7;6.6;;;;;;;5.86;65.86816;945.5087;;;;
2023/02/17 05:13:28;;;;;;;12.9;6.2;;;;;;;5.94;66.29883;945.5264;;;;
2023/02/17 05:15:53;;;;;;;15;6.3;;;;;;;6;65.29004;945.6186;;;;
2023/02/17 05:18:24;;;;;;;10.2;5;;;;;;;6;65.24512;945.5927;;;;
2023/02/17 05:20:53;;;;;;;8.8;4.1;;;;;;;5.87;64.75;945.5421;;;;
2023/02/17 05:23:18;;;;;;;11.7;4.5;;;;;;;5.84;64.88184;945.4952;;;;
2023/02/17 05:25:45;;;;;;;58.5;36.5;;;;;;;5.82;65.25098;945.5338;;;;
2023/02/17 05:28:16;;;;;;;16.4;6.3;;;;;;;5.81;65.50977;945.5217;;;;
2023/02/17 05:30:47;;;;;;;11.4;4.6;;;;;;;5.88;65.25977;945.3869;;;;
2023/02/17 05:33:17;;;;;;;6.2;3.7;;;;;;;5.76;65.45801;945.42;;;;
2023/02/17 05:35:42;;;;;;;5.3;3.3;;;;;;;5.85;65.2666;945.4149;;;;
2023/02/17 05:38:10;;;;;;;7.5;4.3;;;;;;;5.96;64.61719;945.3436;;;;
2023/02/17 05:40:40;;;;;;;17.7;11.6;;;;;;;6.03;63.98535;945.3198;;;;
2023/02/17 05:43:10;;;;;;;19.5;10.1;;;;;;;6;63.78809;945.2568;;;;
2023/02/17 05:49:07;;;;;;;131.5;41.3;;;;;;;6.08;63.39258;945.3289;;;;
2023/02/17 05:51:32;;;;;;;212.5;56.2;;;;;;;6.16;63.75586;945.2424;;;;
2023/02/17 05:53:59;;;;;;;180.1;51.2;;;;;;;6.28;64.28125;945.3563;;;;
2023/02/17 05:56:24;;;;;;;30.7;9.9;;;;;;;6.3;63.65137;945.4117;;;;
2023/02/17 05:58:53;;;;;;;11.8;4.1;;;;;;;6.15;63.40332;945.389;;;;
2023/02/17 06:01:18;;;;;;;24.9;15.6;;;;;;;6.14;63.63867;945.3799;;;;
2023/02/17 06:03:48;;;;;;;16.7;9.6;;;;;;;6.15;63.84473;945.3629;;;;
2023/02/17 06:06:13;;;;;;;16.7;7;;;;;;;6.11;64.15234;945.4016;;;;
2023/02/17 06:08:42;;;;;;;14.6;5.4;;;;;;;6.06;64.56543;945.4222;;;;
2023/02/17 06:11:12;;;;;;;12.1;4.8;;;;;;;5.96;64.86523;945.4931;;;;
2023/02/17 06:13:37;;;;;;;9.6;5.3;;;;;;;6;65.03027;945.4014;;;;
2023/02/17 06:16:07;;;;;;;10.3;5;;;;;;;6.11;64.86621;945.4786;;;;
2023/02/17 06:18:36;;;;;;;9.1;5.2;;;;;;;6.18;64.88867;945.3995;;;;
2023/02/17 06:21:06;;;;;;;11;5.6;;;;;;;6.08;65.25781;945.4648;;;;
2023/02/17 06:24:08;;;;;;;10.6;4.5;;;;;;;5.99;65.41309;945.4398;;;;
2023/02/17 06:26:37;;;;;;;11.4;5.3;;;;;;;6.02;65.30469;945.3842;;;;
2023/02/17 06:29:21;;;;;;;10.1;5.4;;;;;;;6.01;65.07715;945.4313;;;;
2023/02/17 06:31:50;;;;;;;8.8;4.4;;;;;;;5.94;65.08984;945.3778;;;;
2023/02/17 06:34:15;;;;;;;15.3;4.9;;;;;;;5.97;64.78809;945.3052;;;;
2023/02/17 06:36:40;;;;;;;11.8;4.3;;;;;;;6.14;64.15918;945.426;;;;
2023/02/17 06:39:12;;;;;;;22.6;7.6;;;;;;;6.12;64.93652;945.5366;;;;
2023/02/17 06:41:44;;;;;;;21.5;7;;;;;;;6.06;64.8916;945.4686;;;;
2023/02/17 06:44:14;;;;;;;9.2;4.4;;;;;;;6.08;63.94531;945.4766;;;;
2023/02/17 06:46:45;;;;;;;13;5.4;;;;;;;6.19;63.74707;945.5524;;;;
2023/02/17 06:49:09;;;;;;;11.1;4.7;;;;;;;6.24;64.6377;945.6332;;;;
2023/02/17 06:51:35;;;;;;;16.1;5.3;;;;;;;6.3;64.79297;945.6749;;;;
2023/02/17 06:54:00;;;;;;;10.5;4.8;;;;;;;6.37;63.83008;945.6528;;;;
2023/02/17 06:56:29;;;;;;;12.9;5.6;;;;;;;6.43;64.08984;945.6895;;;;
2023/02/17 06:58:54;;;;;;;14.4;5.5;;;;;;;6.44;63.93262;945.7437;;;;
2023/02/17 07:01:23;;;;;;;12;6;;;;;;;6.41;64.19922;945.7932;;;;
2023/02/17 07:03:48;;;;;;;7.3;4.8;;;;;;;6.52;63.95605;945.802;;;;
2023/02/17 07:09:48;;;;;;;10.4;5.6;;;;;;;6.77;62.75879;945.8113;;;;
2023/02/17 07:12:15;;;;;;;11.3;7.2;;;;;;;6.88;60.7373;945.7211;;;;
2023/02/17 07:14:40;;;;;;;38.9;17.4;;;;;;;7.02;61.2334;945.8184;;;;
2023/02/17 07:17:10;;;;;;;10.2;5.5;;;;;;;7.18;60.57617;945.7511;;;;
2023/02/17 07:19:38;;;;;;;14.4;4.9;;;;;;;7.38;60.05957;945.7912;;;;
2023/02/17 07:22:04;;;;;;;8.3;3.9;;;;;;;7.45;59.37891;945.7314;;;;
2023/02/17 07:24:32;;;;;;;14.6;4.3;;;;;;;7.6;59.66113;945.7845;;;;
2023/02/17 07:26:59;;;;;;;11.4;4.9;;;;;;;7.84;59.3291;945.6714;;;;
2023/02/17 07:29:26;;;;;;;15.4;5.6;;;;;;;7.8;59.42676;945.7714;;;;
2023/02/17 07:31:51;;;;;;;12;5.6;;;;;;;7.88;59.13184;945.6616;;;;
2023/02/17 07:34:16;;;;;;;21.2;9.1;;;;;;;7.98;58.10254;945.626;;;;
2023/02/17 07:36:44;;;;;;;14.7;7.4;;;;;;;8.23;57.74902;945.6453;;;;
2023/02/17 07:39:09;;;;;;;27.6;9.1;;;;;;;8.28;57.22168;945.7378;;;;
2023/02/17 07:42:16;;;;;;;15.3;7.5;;;;;;;8.39;57.67969;945.6319;;;;
2023/02/17 07:44:45;;;;;;;19.2;7;;;;;;;8.48;57.49805;945.6841;;;;
2023/02/17 07:47:10;;;;;;;11.1;6;;;;;;;8.6;57.23047;945.6948;;;;
2023/02/17 07:53:05;;;;;;;10.1;5.4;;;;;;;8.78;57.06152;945.6581;;;;
2023/02/17 07:55:31;;;;;;;15.5;6.6;;;;;;;8.75;57.38574;945.7222;;;;
2023/02/17 07:57:59;;;;;;;9.4;3.9;;;;;;;8.73;55.12109;945.7073;;;;
2023/02/17 08:00:24;;;;;;;11.5;4;;;;;;;8.74;55.55469;945.6569;;;;
2023/02/17 08:02:52;;;;;;;19.2;5.3;;;;;;;8.87;55.25293;945.6386;;;;
2023/02/17 08:05:17;;;;;;;9.7;3.9;;;;;;;9.04;54.95703;945.6364;;;;
2023/02/17 08:07:45;;;;;;;10.5;3.5;;;;;;;9.13;53.62402;945.7283;;;;
2023/02/17 08:13:24;;;;;;;13.4;8.3;;;;;;;9.42;55.42676;945.7313;;;;
2023/02/17 08:15:55;;;;;;;26.9;12.7;;;;;;;9.48;54.60156;945.7175;;;;
2023/02/17 08:18:20;;;;;;;28.2;14.9;;;;;;;9.53;53.90234;945.7244;;;;
2023/02/17 08:20:50;;;;;;;22.4;14.4;;;;;;;9.5;53.86523;945.7634;;;;
2023/02/17 08:23:15;;;;;;;23.6;13.5;;;;;;;9.68;54.50293;945.7714;;;;
2023/02/17 08:25:43;;;;;;;18.4;9.3;;;;;;;9.8;53.84375;945.7425;;;;
2023/02/17 08:28:08;;;;;;;11.7;4.5;;;;;;;9.89;53.68555;945.7378;;;;
2023/02/17 08:30:37;;;;;;;8.4;4.3;;;;;;;10.14;52.66602;945.6992;;;;
2023/02/17 08:33:06;;;;;;;11.9;5.2;;;;;;;10.29;52.65137;945.5745;;;;
2023/02/17 08:35:31;;;;;;;19.6;7.9;;;;;;;10.38;51.61133;945.7618;;;;
2023/02/17 08:37:59;;;;;;;12;4.4;;;;;;;10.62;49.75586;945.684;;;;
2023/02/17 08:40:24;;;;;;;8.6;4;;;;;;;10.71;50.18848;945.7575;;;;
2023/02/17 08:42:54;;;;;;;13.5;4.5;;;;;;;10.81;49.94922;945.6931;;;;
2023/02/17 08:45:19;;;;;;;13;4.2;;;;;;;10.8;49.82227;945.7506;;;;
2023/02/17 08:47:49;;;;;;;8.4;4;;;;;;;10.93;49.55176;945.658;;;;
2023/02/17 08:50:19;;;;;;;13.2;5.1;;;;;;;11.03;48.96973;945.74;;;;
2023/02/17 08:52:46;;;;;;;12.7;6.1;;;;;;;11.15;49.45117;945.6943;;;;
2023/02/17 08:55:14;;;;;;;22.1;8.1;;;;;;;11.23;49.19727;945.6883;;;;
2023/02/17 08:57:42;;;;;;;18.6;5;;;;;;;11.34;48.22559;945.5563;;;;
2023/02/17 09:00:17;;;;;;;13.9;5.3;;;;;;;11.23;48.00781;945.701;;;;
2023/02/17 09:02:48;;;;;;;10.2;3.4;;;;;;;11.46;47.5752;945.6783;;;;
2023/02/17 09:05:16;;;;;;;8.3;3.6;;;;;;;11.81;47.32813;945.6956;;;;
2023/02/17 09:07:43;;;;;;;10.3;3.9;;;;;;;12;46.60449;945.6859;;;;
2023/02/17 09:10:13;;;;;;;10.2;3.9;;;;;;;12.4;46.08496;945.7021;;;;
2023/02/17 09:12:42;;;;;;;10.3;3.2;;;;;;;12.52;46.10938;945.6722;;;;
2023/02/17 09:15:16;;;;;;;6.4;2.7;;;;;;;12.95;44.54785;945.8103;;;;
2023/02/17 09:17:47;;;;;;;11.9;3;;;;;;;13.06;44.45508;945.8183;;;;
2023/02/17 09:20:18;;;;;;;7.5;2.7;;;;;;;13.44;44.14941;945.8594;;;;
2023/02/17 09:22:46;;;;;;;12.4;3;;;;;;;13.2;44.1709;945.9617;;;;
2023/02/17 09:25:11;;;;;;;6.4;2.4;;;;;;;13.35;43.89941;946.0142;;;;
2023/02/17 09:27:41;;;;;;;5.7;2.5;;;;;;;13.48;43.34961;945.9222;;;;
2023/02/17 09:30:13;;;;;;;13.9;5.8;;;;;;;13.42;43.5498;946.0008;;;;
2023/02/17 09:32:42;;;;;;;18.4;7.4;;;;;;;13.36;43.90039;946.0045;;;;
2023/02/17 09:35:07;;;;;;;18;6.8;;;;;;;13.45;44.20801;945.9706;;;;
2023/02/17 09:37:37;;;;;;;12.8;4.3;;;;;;;13.41;43.7334;946.0803;;;;
2023/02/17 09:40:07;;;;;;;17;7.5;;;;;;;13.04;45.07422;945.9155;;;;
2023/02/17 09:42:34;;;;;;;12.3;3.9;;;;;;;12.63;47.33691;945.7378;;;;
2023/02/17 09:45:02;;;;;;;10;3.1;;;;;;;12.54;46.63965;945.9137;;;;
2023/02/17 09:47:29;;;;;;;17.5;5.3;;;;;;;12.55;46.57129;945.9994;;;;
2023/02/17 09:49:55;;;;;;;11.6;3.9;;;;;;;12.75;46.25977;945.9895;;;;
2023/02/17 09:52:19;;;;;;;12.9;4.3;;;;;;;12.8;47.25195;946.0237;;;;
2023/02/17 09:54:44;;;;;;;11.2;3.7;;;;;;;12.99;47.1582;946.1697;;;;
2023/02/17 09:57:09;;;;;;;8.8;3.8;;;;;;;13.25;46.78418;946.1042;;;;
2023/02/17 09:59:34;;;;;;;7.2;3.6;;;;;;;13.4;46.91602;946.2011;;;;
2023/02/17 10:02:06;;;;;;;8.2;3;;;;;;;13.48;45.96973;946.231;;;;
2023/02/17 10:04:31;;;;;;;9.2;3;;;;;;;13.48;45.625;946.1454;;;;
2023/02/17 10:07:01;;;;;;;3.2;1;;;;;;;13.43;46.02246;946.1169;;;;
2023/02/17 10:09:29;;;;;;;6.1;2.2;;;;;;;13.56;46.55371;946.1215;;;;
2023/02/17 10:11:55;;;;;;;5.4;2.1;;;;;;;13.5;46.0752;946.1833;;;;
2023/02/17 10:14:20;;;;;;;6.9;2.6;;;;;;;13.48;45.86621;946.1863;;;;
2023/02/17 10:16:47;;;;;;;2.8;1.1;;;;;;;13.55;45.60938;946.0877;;;;
2023/02/17 10:19:12;;;;;;;5;1.7;;;;;;;13.73;47.03125;946.1643;;;;
2023/02/17 10:21:37;;;;;;;1.6;0.8;;;;;;;13.71;47.05273;946.2081;;;;
2023/02/17 10:24:06;;;;;;;1.7;0.8;;;;;;;13.72;47.60547;946.2908;;;;
2023/02/17 10:26:33;;;;;;;1.6;0.7;;;;;;;13.67;47.91016;946.2238;;;;
2023/02/17 10:28:56;;;;;;;6;1.8;;;;;;;13.84;47.83789;946.1312;;;;
2023/02/17 10:31:22;;;;;;;3.1;0.9;;;;;;;13.71;47.54688;946.1562;;;;
2023/02/17 10:33:50;;;;;;;3.6;0.8;;;;;;;13.72;48.07715;946.145;;;;
2023/02/17 10:36:16;;;;;;;7.3;0.9;;;;;;;13.88;48.05957;946.1188;;;;
2023/02/17 10:38:40;;;;;;;2.3;0.6;;;;;;;14.02;47.61523;946.0732;;;;
2023/02/17 10:41:05;;;;;;;6.9;1.3;;;;;;;14.28;47.27539;946.1156;;;;
2023/02/17 10:43:30;;;;;;;2.1;0.8;;;;;;;14.49;45.68457;946.101;;;;
2023/02/17 10:45:55;;;;;;;8;2.1;;;;;;;14.48;45.72949;946.1361;;;;
2023/02/17 10:48:24;;;;;;;2.5;1;;;;;;;14.54;45.59668;946.1358;;;;
2023/02/17 10:50:50;;;;;;;5.6;1;;;;;;;14.64;45.73535;946.1135;;;;
2023/02/17 10:53:18;;;;;;;2.6;0.5;;;;;;;14.63;45.80273;946.1551;;;;
2023/02/17 10:55:42;;;;;;;2.2;1;;;;;;;14.65;45.9668;946.132;;;;
2023/02/17 10:58:07;;;;;;;0.7;0.6;;;;;;;14.64;45.52637;945.9403;;;;
2023/02/17 11:00:33;;;;;;;3.4;0.8;;;;;;;14.73;46.19434;946.0467;;;;
2023/02/17 11:03:00;;;;;;;7.6;1.1;;;;;;;14.72;45.77832;945.9881;;;;
2023/02/17 11:05:27;;;;;;;1.6;0.8;;;;;;;14.78;45.74902;946.0069;;;;
2023/02/17 11:07:55;;;;;;;4.5;1.3;;;;;;;14.88;45.01074;946.092;;;;
2023/02/17 11:10:22;;;;;;;4.7;1.7;;;;;;;14.64;44.9502;945.9716;;;;
2023/02/17 11:12:51;;;;;;;4.2;1.6;;;;;;;14.76;44.72168;945.8945;;;;
2023/02/17 11:15:16;;;;;;;5;1.8;;;;;;;14.5;46.05371;945.8542;;;;
2023/02/17 11:17:50;;;;;;;1.4;0.8;;;;;;;14.91;46.13281;945.8306;;;;
2023/02/17 11:20:15;;;;;;;3.4;0.9;;;;;;;15.17;45.375;945.7254;;;;
2023/02/17 11:22:43;;;;;;;3.1;1.4;;;;;;;15.31;44.75586;945.7447;;;;
2023/02/17 11:25:06;;;;;;;2.3;1.5;;;;;;;15.31;44.57031;945.767;;;;
2023/02/17 11:27:31;;;;;;;4.4;1.1;;;;;;;15.73;43.78027;945.7256;;;;
2023/02/17 11:29:58;;;;;;;2.2;1;;;;;;;15.87;43.75879;945.6884;;;;
2023/02/17 11:32:24;;;;;;;3.2;1;;;;;;;17.38;42.04395;945.6814;;;;
2023/02/17 11:34:52;;;;;;;3.1;1;;;;;;;18.73;39.10059;945.67;;;;
2023/02/17 11:37:17;;;;;;;2.6;0.5;;;;;;;19.47;37.74512;945.5278;;;;
2023/02/17 11:39:47;;;;;;;3;0.5;;;;;;;19.59;36.76465;945.5062;;;;
2023/02/17 11:42:15;;;;;;;1.4;0.7;;;;;;;19.95;35.52344;945.3585;;;;
2023/02/17 11:44:40;;;;;;;1.9;0.5;;;;;;;19.06;37.71094;945.4329;;;;
2023/02/17 11:47:05;;;;;;;3.7;0.5;;;;;;;18.46;38.40234;945.413;;;;
2023/02/17 11:49:31;;;;;;;7.4;0.9;;;;;;;18.1;39.10352;945.4559;;;;
2023/02/17 11:51:58;;;;;;;1.5;0.3;;;;;;;17.64;39.63184;945.3922;;;;
2023/02/17 11:54:28;;;;;;;1.5;0.7;;;;;;;17.49;40.97461;945.3719;;;;
2023/02/17 11:56:53;;;;;;;0.9;0.9;;;;;;;17.28;40.68848;945.3904;;;;
2023/02/17 11:59:20;;;;;;;1;0.4;;;;;;;16.91;41.99902;945.4864;;;;
2023/02/17 12:01:45;;;;;;;2.8;0.6;;;;;;;16.91;42.0332;945.5041;;;;
2023/02/17 12:04:10;;;;;;;3.3;0.6;;;;;;;16.98;42.08691;945.4773;;;;
2023/02/17 12:06:35;;;;;;;3.1;0.7;;;;;;;17.78;40.20117;945.3908;;;;
2023/02/17 12:09:03;;;;;;;1.8;0.6;;;;;;;17.96;40.96094;945.3495;;;;
2023/02/17 12:11:28;;;;;;;1.6;0.6;;;;;;;17.95;40.39063;945.2916;;;;
2023/02/17 12:13:53;;;;;;;3.7;0.9;;;;;;;18.29;40.46875;945.3088;;;;
2023/02/17 12:16:23;;;;;;;0.7;0.4;;;;;;;18.18;39.83105;945.2215;;;;
2023/02/17 12:18:54;;;;;;;3.5;0.6;;;;;;;18.26;39.7334;945.3106;;;;
2023/02/17 12:21:21;;;;;;;2.1;0.6;;;;;;;17.75;41.4873;945.2718;;;;
2023/02/17 12:23:49;;;;;;;5.7;1.1;;;;;;;17.27;41.41797;945.2385;;;;
2023/02/17 12:26:14;;;;;;;0.8;0.4;;;;;;;17.4;41.82617;945.2231;;;;
2023/02/17 12:28:40;;;;;;;1.7;0.4;;;;;;;17.53;41.39648;945.1961;;;;
2023/02/17 12:31:07;;;;;;;0.5;0.3;;;;;;;18.07;40.40234;945.1967;;;;
2023/02/17 12:33:35;;;;;;;1.6;0.5;;;;;;;17.54;41.00293;945.1035;;;;
2023/02/17 12:36:00;;;;;;;1.2;0.4;;;;;;;17.36;41.27637;944.998;;;;
2023/02/17 12:38:25;;;;;;;0.9;0.5;;;;;;;17.87;40.79102;945.0142;;;;
2023/02/17 12:40:50;;;;;;;0.6;0.5;;;;;;;18.91;38.5127;944.9033;;;;
2023/02/17 12:43:16;;;;;;;2.7;0.6;;;;;;;20.46;36.70898;944.8926;;;;
2023/02/17 12:45:43;;;;;;;1.2;0.5;;;;;;;21.76;33.87598;944.8849;;;;
2023/02/17 12:48:08;;;;;;;1.7;0.5;;;;;;;21.76;33.83008;944.8038;;;;
2023/02/17 12:50:35;;;;;;;1.9;0.6;;;;;;;22.69;32.67969;944.814;;;;
2023/02/17 12:53:00;;;;;;;1.5;0.4;;;;;;;21.69;33.25098;944.7608;;;;
2023/02/17 12:55:28;;;;;;;1;0.5;;;;;;;21.83;33.9873;944.6962;;;;
2023/02/17 12:57:56;;;;;;;0.6;0.3;;;;;;;20.54;35.05664;944.6783;;;;
2023/02/17 13:00:25;;;;;;;1;0.3;;;;;;;20.29;35.8418;944.7673;;;;
2023/02/17 13:02:50;;;;;;;2.3;0.4;;;;;;;21.06;35.30762;944.7022;;;;
2023/02/17 13:05:17;;;;;;;1.9;0.3;;;;;;;20.4;35.61816;944.677;;;;
2023/02/17 13:07:44;;;;;;;1.4;0.3;;;;;;;20.45;36.13672;944.7067;;;;
2023/02/17 13:10:09;;;;;;;4.4;0.5;;;;;;;19.93;36.51367;944.6781;;;;
2023/02/17 13:12:34;;;;;;;0.7;0.3;;;;;;;19.7;37.36816;944.7034;;;;
2023/02/17 13:14:59;;;;;;;2.6;0.5;;;;;;;19.34;37.55957;944.774;;;;
2023/02/17 13:17:37;;;;;;;0.8;0.2;;;;;;;18.61;39.69531;944.75;;;;
2023/02/17 13:20:06;;;;;;;0.9;0.5;;;;;;;18;40.68555;944.7247;;;;
2023/02/17 13:22:39;;;;;;;0.5;0.2;;;;;;;17.78;41.22363;944.7181;;;;
2023/02/17 13:25:04;;;;;;;1.7;0.4;;;;;;;17.53;41.82617;944.6816;;;;
2023/02/17 13:27:35;;;;;;;0.7;0.2;;;;;;;17.41;42.08203;944.6805;;;;
2023/02/17 13:30:01;;;;;;;1.8;0.7;;;;;;;17.49;42.25098;944.656;;;;
2023/02/17 13:32:27;;;;;;;0.5;0.2;;;;;;;17.28;42.68359;944.6209;;;;
2023/02/17 13:34:53;;;;;;;1.5;0.3;;;;;;;17.1;43.1416;944.7729;;;;
2023/02/17 13:37:18;;;;;;;5.6;1.1;;;;;;;17.6;42.28516;944.8074;;;;
2023/02/17 13:39:43;;;;;;;0.7;0.3;;;;;;;17.49;42.07715;944.8315;;;;
2023/02/17 13:42:13;;;;;;;1.4;0.4;;;;;;;17.39;43.58691;944.8448;;;;
2023/02/17 13:44:41;;;;;;;1.5;0.4;;;;;;;17.19;43.06934;944.9777;;;;
2023/02/17 13:47:07;;;;;;;2.1;0.6;;;;;;;17.32;42.81543;944.8862;;;;
2023/02/17 13:49:34;;;;;;;2.7;0.3;;;;;;;17.22;42.85156;944.889;;;;
2023/02/17 13:52:02;;;;;;;1.4;0.3;;;;;;;17.07;43.30078;945.012;;;;
2023/02/17 13:54:31;;;;;;;2.3;0.6;;;;;;;17.1;44.45117;944.9492;;;;
2023/02/17 13:57:00;;;;;;;2.3;0.2;;;;;;;16.78;44.0127;944.9781;;;;
2023/02/17 13:59:33;;;;;;;1;0.3;;;;;;;16.8;44.64063;945.0457;;;;
2023/02/17 14:01:57;;;;;;;0.2;0.2;;;;;;;16.47;45.56738;944.9994;;;;
2023/02/17 14:04:29;;;;;;;0.4;0.4;;;;;;;16.23;48.00586;945.0944;;;;
2023/02/17 14:06:56;;;;;;;1.7;0.3;;;;;;;15.99;49.72656;945.1696;;;;
2023/02/17 14:09:22;;;;;;;0.6;0.3;;;;;;;15.71;52.15527;945.2977;;;;
2023/02/17 14:11:50;;;;;;;1.1;0.2;;;;;;;15.43;54.35059;945.2637;;;;
2023/02/17 14:14:16;;;;;;;4.7;3.4;;;;;;;15.36;56.20117;945.248;;;;
2023/02/17 14:16:42;;;;;;;1.3;0.5;;;;;;;15.09;57.05469;945.348;;;;
2023/02/17 14:19:11;;;;;;;2.4;0.3;;;;;;;14.97;57.22266;945.3882;;;;
2023/02/17 14:21:38;;;;;;;1.1;0.8;;;;;;;14.91;60.28418;945.4634;;;;
2023/02/17 14:24:05;;;;;;;1.1;0.4;;;;;;;14.83;61.21777;945.4414;;;;
2023/02/17 14:26:34;;;;;;;1.4;1.3;;;;;;;14.61;61.02539;945.4757;;;;
2023/02/17 14:28:59;;;;;;;0.7;0.4;;;;;;;14.66;61.18262;945.4908;;;;
2023/02/17 14:31:27;;;;;;;0.4;0.4;;;;;;;14.68;58.71875;945.4508;;;;
2023/02/17 14:33:52;;;;;;;2.4;1.8;;;;;;;14.73;59.56738;945.4214;;;;
2023/02/17 14:36:17;;;;;;;2.2;1.1;;;;;;;14.86;57.73926;945.3164;;;;
2023/02/17 14:38:44;;;;;;;1;0.9;;;;;;;15.02;57.17285;945.4095;;;;
2023/02/17 14:41:10;;;;;;;0.7;0.6;;;;;;;14.88;56.09375;945.3663;;;;
2023/02/17 14:43:35;;;;;;;0.8;0.4;;;;;;;14.95;55.27051;945.413;;;;
2023/02/17 14:46:00;;;;;;;0.5;0.2;;;;;;;15.07;54.74414;945.4988;;;;
2023/02/17 14:48:29;;;;;;;1.2;1.1;;;;;;;15.04;58.7666;945.5669;;;;
2023/02/17 14:50:56;;;;;;;1.8;1;;;;;;;15.13;59.62109;945.5391;;;;
2023/02/17 14:53:24;;;;;;;0.7;0.5;;;;;;;15.13;60.64844;945.4942;;;;
2023/02/17 14:55:53;;;;;;;2.7;1.8;;;;;;;14.94;60.0918;945.4988;;;;
2023/02/17 14:58:17;;;;;;;2.1;1.4;;;;;;;14.74;61.05469;945.5344;;;;
2023/02/17 15:00:43;;;;;;;1;0.8;;;;;;;14.7;60.62402;945.4629;;;;
2023/02/17 15:03:13;;;;;;;3.2;2.1;;;;;;;14.76;59.43262;945.5209;;;;